sensor_id;sensor_type;location;lat;lon;timestamp;P1;durP1;ratioP1;P2;durP2;ratioP2
23370;SDS011;11858;51.056;3.712;2023-10-08T00:01:28;18.67;;;17.23;;
23370;SDS011;11858;51.056;3.712;2023-10-08T00:03:54;18.45;;;16.80;;
23370;SDS011;11858;51.056;3.712;2023-10-08T00:06:23;18.45;;;17.05;;
23370;SDS011;11858;51.056;3.712;2023-10-08T00:08:49;16.20;;;15.00;;
23370;SDS011;11858;51.056;3.712;2023-10-08T00:11:16;18.10;;;16.58;;
23370;SDS011;11858;51.056;3.712;2023-10-08T00:13:44;16.95;;;15.85;;
23370;SDS011;11858;51.056;3.712;2023-10-08T00:16:10;18.83;;;17.13;;
23370;SDS011;11858;51.056;3.712;2023-10-08T00:18:41;18.27;;;16.70;;
23370;SDS011;11858;51.056;3.712;2023-10-08T00:21:13;17.40;;;15.95;;
23370;SDS011;11858;51.056;3.712;2023-10-08T00:23:39;16.80;;;15.70;;
23370;SDS011;11858;51.056;3.712;2023-10-08T00:26:09;17.48;;;15.90;;
23370;SDS011;11858;51.056;3.712;2023-10-08T00:28:35;17.35;;;15.93;;
23370;SDS011;11858;51.056;3.712;2023-10-08T00:31:01;16.83;;;15.65;;
23370;SDS011;11858;51.056;3.712;2023-10-08T00:33:40;16.20;;;15.07;;
23370;SDS011;11858;51.056;3.712;2023-10-08T00:36:09;16.67;;;15.45;;
23370;SDS011;11858;51.056;3.712;2023-10-08T00:38:45;15.90;;;14.80;;
23370;SDS011;11858;51.056;3.712;2023-10-08T00:41:15;16.40;;;15.07;;
23370;SDS011;11858;51.056;3.712;2023-10-08T00:43:41;15.20;;;14.20;;
23370;SDS011;11858;51.056;3.712;2023-10-08T00:46:10;15.50;;;14.35;;
23370;SDS011;11858;51.056;3.712;2023-10-08T00:48:53;17.15;;;15.85;;
23370;SDS011;11858;51.056;3.712;2023-10-08T00:51:23;16.27;;;15.25;;
23370;SDS011;11858;51.056;3.712;2023-10-08T00:53:52;16.55;;;15.25;;
23370;SDS011;11858;51.056;3.712;2023-10-08T00:56:18;16.27;;;14.98;;
23370;SDS011;11858;51.056;3.712;2023-10-08T00:58:45;16.83;;;15.25;;
23370;SDS011;11858;51.056;3.712;2023-10-08T01:01:18;16.65;;;15.23;;
23370;SDS011;11858;51.056;3.712;2023-10-08T01:03:47;15.27;;;14.25;;
23370;SDS011;11858;51.056;3.712;2023-10-08T01:06:15;16.38;;;15.05;;
23370;SDS011;11858;51.056;3.712;2023-10-08T01:08:44;14.13;;;13.10;;
23370;SDS011;11858;51.056;3.712;2023-10-08T01:11:19;14.98;;;13.75;;
23370;SDS011;11858;51.056;3.712;2023-10-08T01:14:04;14.75;;;13.65;;
23370;SDS011;11858;51.056;3.712;2023-10-08T01:16:32;15.73;;;13.85;;
23370;SDS011;11858;51.056;3.712;2023-10-08T01:18:59;13.57;;;12.65;;
23370;SDS011;11858;51.056;3.712;2023-10-08T01:21:29;15.32;;;13.43;;
23370;SDS011;11858;51.056;3.712;2023-10-08T01:24:04;13.20;;;12.05;;
23370;SDS011;11858;51.056;3.712;2023-10-08T01:26:32;11.13;;;10.40;;
23370;SDS011;11858;51.056;3.712;2023-10-08T01:28:59;10.63;;;10.00;;
23370;SDS011;11858;51.056;3.712;2023-10-08T01:31:29;12.40;;;11.32;;
23370;SDS011;11858;51.056;3.712;2023-10-08T01:33:54;10.15;;;9.32;;
23370;SDS011;11858;51.056;3.712;2023-10-08T01:36:22;11.43;;;10.50;;
23370;SDS011;11858;51.056;3.712;2023-10-08T01:38:50;14.95;;;9.77;;
23370;SDS011;11858;51.056;3.712;2023-10-08T01:41:16;16.00;;;10.30;;
23370;SDS011;11858;51.056;3.712;2023-10-08T01:43:47;8.40;;;7.88;;
23370;SDS011;11858;51.056;3.712;2023-10-08T01:46:17;8.00;;;7.50;;
23370;SDS011;11858;51.056;3.712;2023-10-08T01:48:46;9.85;;;8.88;;
23370;SDS011;11858;51.056;3.712;2023-10-08T01:51:18;8.90;;;8.02;;
23370;SDS011;11858;51.056;3.712;2023-10-08T01:53:50;8.05;;;7.32;;
23370;SDS011;11858;51.056;3.712;2023-10-08T01:56:19;9.32;;;7.50;;
23370;SDS011;11858;51.056;3.712;2023-10-08T01:58:44;13.88;;;8.82;;
23370;SDS011;11858;51.056;3.712;2023-10-08T02:01:11;7.90;;;6.72;;
23370;SDS011;11858;51.056;3.712;2023-10-08T02:03:38;5.80;;;5.50;;
23370;SDS011;11858;51.056;3.712;2023-10-08T02:06:04;7.60;;;6.88;;
23370;SDS011;11858;51.056;3.712;2023-10-08T02:08:33;10.18;;;7.00;;
23370;SDS011;11858;51.056;3.712;2023-10-08T02:10:59;7.60;;;6.90;;
23370;SDS011;11858;51.056;3.712;2023-10-08T02:13:24;10.75;;;8.05;;
23370;SDS011;11858;51.056;3.712;2023-10-08T02:15:51;8.45;;;5.63;;
23370;SDS011;11858;51.056;3.712;2023-10-08T02:18:17;11.10;;;7.57;;
23370;SDS011;11858;51.056;3.712;2023-10-08T02:20:44;9.98;;;7.65;;
23370;SDS011;11858;51.056;3.712;2023-10-08T02:23:10;5.50;;;5.03;;
23370;SDS011;11858;51.056;3.712;2023-10-08T02:25:38;4.78;;;4.57;;
23370;SDS011;11858;51.056;3.712;2023-10-08T02:28:05;11.10;;;7.03;;
23370;SDS011;11858;51.056;3.712;2023-10-08T02:30:33;5.10;;;4.80;;
23370;SDS011;11858;51.056;3.712;2023-10-08T02:33:04;5.05;;;4.75;;
23370;SDS011;11858;51.056;3.712;2023-10-08T02:35:39;4.95;;;4.70;;
23370;SDS011;11858;51.056;3.712;2023-10-08T02:38:07;7.38;;;5.97;;
23370;SDS011;11858;51.056;3.712;2023-10-08T02:40:34;12.23;;;6.22;;
23370;SDS011;11858;51.056;3.712;2023-10-08T02:43:03;4.72;;;4.53;;
23370;SDS011;11858;51.056;3.712;2023-10-08T02:45:33;5.10;;;4.80;;
23370;SDS011;11858;51.056;3.712;2023-10-08T02:48:03;8.85;;;6.60;;
23370;SDS011;11858;51.056;3.712;2023-10-08T02:50:36;7.28;;;5.70;;
23370;SDS011;11858;51.056;3.712;2023-10-08T02:53:04;5.10;;;4.80;;
23370;SDS011;11858;51.056;3.712;2023-10-08T02:55:37;5.53;;;5.00;;
23370;SDS011;11858;51.056;3.712;2023-10-08T02:58:09;4.50;;;4.30;;
23370;SDS011;11858;51.056;3.712;2023-10-08T03:00:47;6.72;;;6.13;;
23370;SDS011;11858;51.056;3.712;2023-10-08T03:03:14;4.57;;;4.38;;
23370;SDS011;11858;51.056;3.712;2023-10-08T03:05:50;6.07;;;5.60;;
23370;SDS011;11858;51.056;3.712;2023-10-08T03:08:17;9.15;;;7.28;;
23370;SDS011;11858;51.056;3.712;2023-10-08T03:10:47;5.22;;;4.93;;
23370;SDS011;11858;51.056;3.712;2023-10-08T03:13:17;6.28;;;5.38;;
23370;SDS011;11858;51.056;3.712;2023-10-08T03:15:44;4.70;;;4.40;;
23370;SDS011;11858;51.056;3.712;2023-10-08T03:18:28;6.13;;;5.63;;
23370;SDS011;11858;51.056;3.712;2023-10-08T03:21:04;9.57;;;5.85;;
23370;SDS011;11858;51.056;3.712;2023-10-08T03:23:38;6.30;;;5.70;;
23370;SDS011;11858;51.056;3.712;2023-10-08T03:26:10;19.00;;;6.22;;
23370;SDS011;11858;51.056;3.712;2023-10-08T03:28:37;3.80;;;3.60;;
23370;SDS011;11858;51.056;3.712;2023-10-08T03:31:06;5.35;;;4.65;;
23370;SDS011;11858;51.056;3.712;2023-10-08T03:33:39;4.88;;;4.40;;
23370;SDS011;11858;51.056;3.712;2023-10-08T03:36:05;5.55;;;5.07;;
23370;SDS011;11858;51.056;3.712;2023-10-08T03:38:59;4.38;;;4.15;;
23370;SDS011;11858;51.056;3.712;2023-10-08T03:41:34;4.10;;;3.90;;
23370;SDS011;11858;51.056;3.712;2023-10-08T03:44:05;3.70;;;3.50;;
23370;SDS011;11858;51.056;3.712;2023-10-08T03:46:37;4.70;;;4.40;;
23370;SDS011;11858;51.056;3.712;2023-10-08T03:49:14;5.32;;;4.60;;
23370;SDS011;11858;51.056;3.712;2023-10-08T03:52:00;3.88;;;3.67;;
23370;SDS011;11858;51.056;3.712;2023-10-08T03:54:26;3.63;;;3.42;;
23370;SDS011;11858;51.056;3.712;2023-10-08T03:56:55;4.95;;;4.55;;
23370;SDS011;11858;51.056;3.712;2023-10-08T03:59:21;3.25;;;3.15;;
23370;SDS011;11858;51.056;3.712;2023-10-08T04:02:05;4.10;;;3.90;;
23370;SDS011;11858;51.056;3.712;2023-10-08T04:04:46;4.35;;;4.05;;
23370;SDS011;11858;51.056;3.712;2023-10-08T04:07:25;5.10;;;4.60;;
23370;SDS011;11858;51.056;3.712;2023-10-08T04:10:03;4.07;;;3.70;;
23370;SDS011;11858;51.056;3.712;2023-10-08T04:12:35;4.13;;;3.83;;
23370;SDS011;11858;51.056;3.712;2023-10-08T04:15:08;4.88;;;4.47;;
23370;SDS011;11858;51.056;3.712;2023-10-08T04:17:38;6.60;;;4.25;;
23370;SDS011;11858;51.056;3.712;2023-10-08T04:20:11;4.05;;;3.65;;
23370;SDS011;11858;51.056;3.712;2023-10-08T04:22:56;8.73;;;4.68;;
23370;SDS011;11858;51.056;3.712;2023-10-08T04:25:25;3.30;;;3.20;;
23370;SDS011;11858;51.056;3.712;2023-10-08T04:27:53;3.60;;;3.40;;
23370;SDS011;11858;51.056;3.712;2023-10-08T04:30:19;12.43;;;5.70;;
23370;SDS011;11858;51.056;3.712;2023-10-08T04:32:47;3.90;;;3.70;;
23370;SDS011;11858;51.056;3.712;2023-10-08T04:35:17;4.07;;;3.88;;
23370;SDS011;11858;51.056;3.712;2023-10-08T04:37:44;8.45;;;6.00;;
23370;SDS011;11858;51.056;3.712;2023-10-08T04:40:16;2.90;;;2.80;;
23370;SDS011;11858;51.056;3.712;2023-10-08T04:42:42;3.47;;;3.28;;
23370;SDS011;11858;51.056;3.712;2023-10-08T04:45:10;6.65;;;5.32;;
23370;SDS011;11858;51.056;3.712;2023-10-08T04:47:39;7.97;;;4.38;;
23370;SDS011;11858;51.056;3.712;2023-10-08T04:50:07;6.65;;;5.28;;
23370;SDS011;11858;51.056;3.712;2023-10-08T04:52:43;10.43;;;4.53;;
23370;SDS011;11858;51.056;3.712;2023-10-08T04:55:23;3.53;;;3.33;;
23370;SDS011;11858;51.056;3.712;2023-10-08T04:57:54;3.28;;;3.05;;
23370;SDS011;11858;51.056;3.712;2023-10-08T05:00:21;7.20;;;4.43;;
23370;SDS011;11858;51.056;3.712;2023-10-08T05:03:05;6.25;;;4.85;;
23370;SDS011;11858;51.056;3.712;2023-10-08T05:05:38;5.85;;;4.18;;
23370;SDS011;11858;51.056;3.712;2023-10-08T05:08:20;4.45;;;3.40;;
23370;SDS011;11858;51.056;3.712;2023-10-08T05:11:10;6.75;;;4.45;;
23370;SDS011;11858;51.056;3.712;2023-10-08T05:13:40;32.38;;;3.97;;
23370;SDS011;11858;51.056;3.712;2023-10-08T05:16:26;2.63;;;2.42;;
23370;SDS011;11858;51.056;3.712;2023-10-08T05:19:02;6.53;;;3.72;;
23370;SDS011;11858;51.056;3.712;2023-10-08T05:21:50;2.88;;;2.67;;
23370;SDS011;11858;51.056;3.712;2023-10-08T05:24:17;2.40;;;2.30;;
23370;SDS011;11858;51.056;3.712;2023-10-08T05:26:52;8.23;;;4.63;;
23370;SDS011;11858;51.056;3.712;2023-10-08T05:29:34;3.10;;;2.88;;
23370;SDS011;11858;51.056;3.712;2023-10-08T05:32:38;3.50;;;3.00;;
23370;SDS011;11858;51.056;3.712;2023-10-08T05:35:11;4.68;;;4.25;;
23370;SDS011;11858;51.056;3.712;2023-10-08T05:38:03;4.85;;;3.40;;
23370;SDS011;11858;51.056;3.712;2023-10-08T05:40:38;2.30;;;2.20;;
23370;SDS011;11858;51.056;3.712;2023-10-08T05:43:23;9.18;;;4.70;;
23370;SDS011;11858;51.056;3.712;2023-10-08T05:46:06;3.70;;;3.40;;
23370;SDS011;11858;51.056;3.712;2023-10-08T05:48:51;3.28;;;3.08;;
23370;SDS011;11858;51.056;3.712;2023-10-08T05:51:33;10.98;;;5.47;;
23370;SDS011;11858;51.056;3.712;2023-10-08T05:54:13;3.35;;;3.05;;
23370;SDS011;11858;51.056;3.712;2023-10-08T05:57:03;3.92;;;3.55;;
23370;SDS011;11858;51.056;3.712;2023-10-08T06:02:20;2.80;;;2.70;;
23370;SDS011;11858;51.056;3.712;2023-10-08T06:04:53;2.40;;;2.30;;
23370;SDS011;11858;51.056;3.712;2023-10-08T06:07:41;2.90;;;2.70;;
23370;SDS011;11858;51.056;3.712;2023-10-08T06:10:30;2.60;;;2.50;;
23370;SDS011;11858;51.056;3.712;2023-10-08T06:15:38;2.83;;;2.63;;
23370;SDS011;11858;51.056;3.712;2023-10-08T06:18:14;2.70;;;2.60;;
23370;SDS011;11858;51.056;3.712;2023-10-08T06:20:41;2.92;;;2.72;;
23370;SDS011;11858;51.056;3.712;2023-10-08T06:23:15;2.67;;;2.58;;
23370;SDS011;11858;51.056;3.712;2023-10-08T06:25:46;2.70;;;2.60;;
23370;SDS011;11858;51.056;3.712;2023-10-08T06:28:15;4.72;;;4.32;;
23370;SDS011;11858;51.056;3.712;2023-10-08T06:30:49;2.65;;;2.55;;
23370;SDS011;11858;51.056;3.712;2023-10-08T06:33:19;3.30;;;3.10;;
23370;SDS011;11858;51.056;3.712;2023-10-08T06:35:46;4.38;;;3.90;;
23370;SDS011;11858;51.056;3.712;2023-10-08T06:38:34;3.15;;;3.05;;
23370;SDS011;11858;51.056;3.712;2023-10-08T06:41:00;2.90;;;2.80;;
23370;SDS011;11858;51.056;3.712;2023-10-08T06:43:39;2.88;;;2.78;;
23370;SDS011;11858;51.056;3.712;2023-10-08T06:46:10;3.00;;;2.90;;
23370;SDS011;11858;51.056;3.712;2023-10-08T06:48:37;2.90;;;2.80;;
23370;SDS011;11858;51.056;3.712;2023-10-08T06:51:07;4.75;;;4.35;;
23370;SDS011;11858;51.056;3.712;2023-10-08T06:53:40;3.05;;;2.95;;
23370;SDS011;11858;51.056;3.712;2023-10-08T06:56:06;3.10;;;3.00;;
23370;SDS011;11858;51.056;3.712;2023-10-08T06:58:34;4.20;;;3.30;;
23370;SDS011;11858;51.056;3.712;2023-10-08T07:01:01;4.07;;;3.88;;
23370;SDS011;11858;51.056;3.712;2023-10-08T07:03:30;4.55;;;4.20;;
23370;SDS011;11858;51.056;3.712;2023-10-08T07:05:56;6.55;;;4.55;;
23370;SDS011;11858;51.056;3.712;2023-10-08T07:08:27;3.35;;;3.25;;
23370;SDS011;11858;51.056;3.712;2023-10-08T07:10:57;3.88;;;3.60;;
23370;SDS011;11858;51.056;3.712;2023-10-08T07:13:25;3.45;;;3.33;;
23370;SDS011;11858;51.056;3.712;2023-10-08T07:15:54;7.50;;;5.85;;
23370;SDS011;11858;51.056;3.712;2023-10-08T07:18:21;4.45;;;4.15;;
23370;SDS011;11858;51.056;3.712;2023-10-08T07:20:53;5.22;;;4.82;;
23370;SDS011;11858;51.056;3.712;2023-10-08T07:23:21;4.20;;;4.00;;
23370;SDS011;11858;51.056;3.712;2023-10-08T07:26:00;5.82;;;5.25;;
23370;SDS011;11858;51.056;3.712;2023-10-08T07:28:38;3.90;;;3.70;;
23370;SDS011;11858;51.056;3.712;2023-10-08T07:31:14;7.57;;;5.38;;
23370;SDS011;11858;51.056;3.712;2023-10-08T07:33:46;4.30;;;4.10;;
23370;SDS011;11858;51.056;3.712;2023-10-08T07:36:21;4.50;;;4.30;;
23370;SDS011;11858;51.056;3.712;2023-10-08T07:38:54;7.53;;;6.25;;
23370;SDS011;11858;51.056;3.712;2023-10-08T07:41:20;5.68;;;5.38;;
23370;SDS011;11858;51.056;3.712;2023-10-08T07:43:46;5.38;;;5.05;;
23370;SDS011;11858;51.056;3.712;2023-10-08T07:46:23;5.18;;;4.95;;
23370;SDS011;11858;51.056;3.712;2023-10-08T07:48:51;4.65;;;4.45;;
23370;SDS011;11858;51.056;3.712;2023-10-08T07:51:17;4.45;;;4.25;;
23370;SDS011;11858;51.056;3.712;2023-10-08T07:53:47;5.20;;;5.00;;
23370;SDS011;11858;51.056;3.712;2023-10-08T07:56:13;9.23;;;8.27;;
23370;SDS011;11858;51.056;3.712;2023-10-08T07:58:39;7.25;;;6.85;;
23370;SDS011;11858;51.056;3.712;2023-10-08T08:01:07;8.20;;;7.80;;
23370;SDS011;11858;51.056;3.712;2023-10-08T08:03:34;11.75;;;10.57;;
23370;SDS011;11858;51.056;3.712;2023-10-08T08:06:03;9.70;;;9.20;;
23370;SDS011;11858;51.056;3.712;2023-10-08T08:08:31;11.93;;;10.70;;
23370;SDS011;11858;51.056;3.712;2023-10-08T08:10:58;12.30;;;11.50;;
23370;SDS011;11858;51.056;3.712;2023-10-08T08:13:37;12.18;;;11.48;;
23370;SDS011;11858;51.056;3.712;2023-10-08T08:16:10;13.30;;;12.50;;
23370;SDS011;11858;51.056;3.712;2023-10-08T08:18:45;16.67;;;15.32;;
23370;SDS011;11858;51.056;3.712;2023-10-08T08:21:15;13.40;;;12.60;;
23370;SDS011;11858;51.056;3.712;2023-10-08T08:23:41;14.15;;;13.35;;
23370;SDS011;11858;51.056;3.712;2023-10-08T08:26:18;14.13;;;13.32;;
23370;SDS011;11858;51.056;3.712;2023-10-08T08:28:57;15.40;;;14.40;;
23370;SDS011;11858;51.056;3.712;2023-10-08T08:31:29;14.90;;;14.00;;
23370;SDS011;11858;51.056;3.712;2023-10-08T08:36:28;16.10;;;15.10;;
23370;SDS011;11858;51.056;3.712;2023-10-08T08:38:56;16.45;;;15.35;;
23370;SDS011;11858;51.056;3.712;2023-10-08T08:41:23;15.70;;;14.73;;
23370;SDS011;11858;51.056;3.712;2023-10-08T08:46:22;16.83;;;15.40;;
23370;SDS011;11858;51.056;3.712;2023-10-08T08:49:01;16.45;;;15.45;;
23370;SDS011;11858;51.056;3.712;2023-10-08T08:51:32;16.17;;;15.18;;
23370;SDS011;11858;51.056;3.712;2023-10-08T08:54:00;16.48;;;15.30;;
23370;SDS011;11858;51.056;3.712;2023-10-08T08:56:32;16.10;;;15.10;;
23370;SDS011;11858;51.056;3.712;2023-10-08T08:59:00;17.13;;;16.02;;
23370;SDS011;11858;51.056;3.712;2023-10-08T09:01:26;17.08;;;15.98;;
23370;SDS011;11858;51.056;3.712;2023-10-08T09:04:01;16.88;;;15.77;;
23370;SDS011;11858;51.056;3.712;2023-10-08T09:06:30;16.83;;;15.82;;
23370;SDS011;11858;51.056;3.712;2023-10-08T09:08:59;17.77;;;16.08;;
23370;SDS011;11858;51.056;3.712;2023-10-08T09:11:39;16.95;;;15.85;;
23370;SDS011;11858;51.056;3.712;2023-10-08T09:14:08;17.17;;;16.08;;
23370;SDS011;11858;51.056;3.712;2023-10-08T09:16:35;18.70;;;16.98;;
23370;SDS011;11858;51.056;3.712;2023-10-08T09:19:02;17.20;;;16.10;;
23370;SDS011;11858;51.056;3.712;2023-10-08T09:21:29;17.58;;;16.40;;
23370;SDS011;11858;51.056;3.712;2023-10-08T09:23:55;17.10;;;15.90;;
23370;SDS011;11858;51.056;3.712;2023-10-08T09:26:24;16.52;;;15.48;;
23370;SDS011;11858;51.056;3.712;2023-10-08T09:28:52;16.13;;;15.13;;
23370;SDS011;11858;51.056;3.712;2023-10-08T09:31:18;16.88;;;15.60;;
23370;SDS011;11858;51.056;3.712;2023-10-08T09:33:55;17.58;;;16.40;;
23370;SDS011;11858;51.056;3.712;2023-10-08T09:36:21;17.52;;;16.42;;
23370;SDS011;11858;51.056;3.712;2023-10-08T09:38:58;18.48;;;17.17;;
23370;SDS011;11858;51.056;3.712;2023-10-08T09:41:31;16.15;;;15.15;;
23370;SDS011;11858;51.056;3.712;2023-10-08T09:44:00;17.80;;;16.60;;
23370;SDS011;11858;51.056;3.712;2023-10-08T09:46:30;18.02;;;16.77;;
23370;SDS011;11858;51.056;3.712;2023-10-08T09:49:01;16.58;;;15.57;;
23370;SDS011;11858;51.056;3.712;2023-10-08T09:51:32;17.73;;;16.63;;
23370;SDS011;11858;51.056;3.712;2023-10-08T09:54:03;17.90;;;16.67;;
23370;SDS011;11858;51.056;3.712;2023-10-08T09:56:35;16.95;;;15.85;;
23370;SDS011;11858;51.056;3.712;2023-10-08T09:59:04;16.80;;;15.70;;
23370;SDS011;11858;51.056;3.712;2023-10-08T10:01:30;18.38;;;17.02;;
23370;SDS011;11858;51.056;3.712;2023-10-08T10:03:57;17.13;;;16.02;;
23370;SDS011;11858;51.056;3.712;2023-10-08T10:06:26;17.40;;;16.25;;
23370;SDS011;11858;51.056;3.712;2023-10-08T10:08:55;16.60;;;15.60;;
23370;SDS011;11858;51.056;3.712;2023-10-08T10:11:28;16.73;;;15.73;;
23370;SDS011;11858;51.056;3.712;2023-10-08T10:13:58;18.77;;;17.38;;
23370;SDS011;11858;51.056;3.712;2023-10-08T10:16:25;17.30;;;16.20;;
23370;SDS011;11858;51.056;3.712;2023-10-08T10:18:54;17.58;;;16.48;;
23370;SDS011;11858;51.056;3.712;2023-10-08T10:21:25;16.80;;;15.70;;
23370;SDS011;11858;51.056;3.712;2023-10-08T10:23:58;17.65;;;16.30;;
23370;SDS011;11858;51.056;3.712;2023-10-08T10:26:34;38.60;;;16.92;;
23370;SDS011;11858;51.056;3.712;2023-10-08T10:29:22;17.25;;;16.15;;
23370;SDS011;11858;51.056;3.712;2023-10-08T10:31:47;17.70;;;16.50;;
23370;SDS011;11858;51.056;3.712;2023-10-08T10:34:25;17.92;;;16.73;;
23370;SDS011;11858;51.056;3.712;2023-10-08T10:36:56;19.13;;;17.63;;
23370;SDS011;11858;51.056;3.712;2023-10-08T10:39:33;18.10;;;16.90;;
23370;SDS011;11858;51.056;3.712;2023-10-08T10:42:05;18.17;;;16.88;;
23370;SDS011;11858;51.056;3.712;2023-10-08T10:44:43;17.92;;;16.73;;
23370;SDS011;11858;51.056;3.712;2023-10-08T10:47:09;18.13;;;16.83;;
23370;SDS011;11858;51.056;3.712;2023-10-08T10:49:41;17.90;;;16.73;;
23370;SDS011;11858;51.056;3.712;2023-10-08T10:52:26;16.98;;;15.88;;
23370;SDS011;11858;51.056;3.712;2023-10-08T10:55:17;17.95;;;16.73;;
23370;SDS011;11858;51.056;3.712;2023-10-08T10:57:54;18.55;;;17.27;;
23370;SDS011;11858;51.056;3.712;2023-10-08T11:00:21;18.40;;;17.20;;
23370;SDS011;11858;51.056;3.712;2023-10-08T11:03:10;18.40;;;17.10;;
23370;SDS011;11858;51.056;3.712;2023-10-08T11:05:46;19.38;;;17.90;;
23370;SDS011;11858;51.056;3.712;2023-10-08T11:08:16;18.55;;;17.23;;
23370;SDS011;11858;51.056;3.712;2023-10-08T11:10:48;18.50;;;17.20;;
23370;SDS011;11858;51.056;3.712;2023-10-08T11:13:21;20.80;;;18.95;;
23370;SDS011;11858;51.056;3.712;2023-10-08T11:15:53;21.20;;;19.45;;
23370;SDS011;11858;51.056;3.712;2023-10-08T11:18:23;19.07;;;17.63;;
23370;SDS011;11858;51.056;3.712;2023-10-08T11:20:51;18.15;;;16.95;;
23370;SDS011;11858;51.056;3.712;2023-10-08T11:23:33;18.58;;;17.27;;
23370;SDS011;11858;51.056;3.712;2023-10-08T11:26:06;19.05;;;17.48;;
23370;SDS011;11858;51.056;3.712;2023-10-08T11:28:34;18.95;;;17.55;;
23370;SDS011;11858;51.056;3.712;2023-10-08T11:31:06;17.77;;;16.58;;
23370;SDS011;11858;51.056;3.712;2023-10-08T11:33:38;20.35;;;18.55;;
23370;SDS011;11858;51.056;3.712;2023-10-08T11:36:06;19.30;;;17.90;;
23370;SDS011;11858;51.056;3.712;2023-10-08T11:38:43;22.05;;;19.52;;
23370;SDS011;11858;51.056;3.712;2023-10-08T11:41:16;29.17;;;19.08;;
23370;SDS011;11858;51.056;3.712;2023-10-08T11:43:51;18.45;;;17.15;;
23370;SDS011;11858;51.056;3.712;2023-10-08T11:46:27;18.15;;;16.95;;
23370;SDS011;11858;51.056;3.712;2023-10-08T11:48:58;18.80;;;17.50;;
23370;SDS011;11858;51.056;3.712;2023-10-08T11:51:32;19.27;;;17.88;;
23370;SDS011;11858;51.056;3.712;2023-10-08T11:54:02;20.17;;;18.50;;
23370;SDS011;11858;51.056;3.712;2023-10-08T11:56:31;18.90;;;17.60;;
23370;SDS011;11858;51.056;3.712;2023-10-08T11:58:58;18.15;;;16.90;;
23370;SDS011;11858;51.056;3.712;2023-10-08T12:01:27;18.15;;;16.75;;
23370;SDS011;11858;51.056;3.712;2023-10-08T12:03:53;18.60;;;17.30;;
23370;SDS011;11858;51.056;3.712;2023-10-08T12:06:24;18.65;;;17.33;;
23370;SDS011;11858;51.056;3.712;2023-10-08T12:08:50;19.63;;;18.08;;
23370;SDS011;11858;51.056;3.712;2023-10-08T12:11:18;18.50;;;17.20;;
23370;SDS011;11858;51.056;3.712;2023-10-08T12:13:48;21.40;;;19.57;;
23370;SDS011;11858;51.056;3.712;2023-10-08T12:16:15;18.20;;;16.90;;
23370;SDS011;11858;51.056;3.712;2023-10-08T12:18:46;20.77;;;18.15;;
23370;SDS011;11858;51.056;3.712;2023-10-08T12:21:22;17.50;;;16.30;;
23370;SDS011;11858;51.056;3.712;2023-10-08T12:23:49;19.63;;;17.73;;
23370;SDS011;11858;51.056;3.712;2023-10-08T12:26:16;17.63;;;16.42;;
23370;SDS011;11858;51.056;3.712;2023-10-08T12:28:44;17.67;;;16.48;;
23370;SDS011;11858;51.056;3.712;2023-10-08T12:31:13;22.35;;;20.15;;
23370;SDS011;11858;51.056;3.712;2023-10-08T12:33:40;19.65;;;17.90;;
23370;SDS011;11858;51.056;3.712;2023-10-08T12:36:08;18.95;;;17.45;;
23370;SDS011;11858;51.056;3.712;2023-10-08T12:38:38;20.30;;;18.30;;
23370;SDS011;11858;51.056;3.712;2023-10-08T12:41:06;20.05;;;18.15;;
23370;SDS011;11858;51.056;3.712;2023-10-08T12:43:41;18.02;;;16.83;;
23370;SDS011;11858;51.056;3.712;2023-10-08T12:46:10;18.75;;;17.48;;
23370;SDS011;11858;51.056;3.712;2023-10-08T12:48:44;19.77;;;18.10;;
23370;SDS011;11858;51.056;3.712;2023-10-08T12:51:12;22.25;;;20.20;;
23370;SDS011;11858;51.056;3.712;2023-10-08T12:53:39;19.40;;;17.77;;
23370;SDS011;11858;51.056;3.712;2023-10-08T12:56:06;19.85;;;17.90;;
23370;SDS011;11858;51.056;3.712;2023-10-08T12:58:40;17.27;;;16.17;;
23370;SDS011;11858;51.056;3.712;2023-10-08T13:01:12;17.60;;;16.50;;
23370;SDS011;11858;51.056;3.712;2023-10-08T13:03:39;18.08;;;16.88;;
23370;SDS011;11858;51.056;3.712;2023-10-08T13:06:12;19.30;;;17.60;;
23370;SDS011;11858;51.056;3.712;2023-10-08T13:08:50;18.17;;;16.90;;
23370;SDS011;11858;51.056;3.712;2023-10-08T13:13:53;17.50;;;16.35;;
23370;SDS011;11858;51.056;3.712;2023-10-08T13:16:23;17.17;;;16.08;;
23370;SDS011;11858;51.056;3.712;2023-10-08T13:18:50;18.42;;;17.08;;
23370;SDS011;11858;51.056;3.712;2023-10-08T13:21:17;17.38;;;16.27;;
23370;SDS011;11858;51.056;3.712;2023-10-08T13:23:50;17.95;;;16.75;;
23370;SDS011;11858;51.056;3.712;2023-10-08T13:26:16;17.60;;;16.48;;
23370;SDS011;11858;51.056;3.712;2023-10-08T13:28:42;20.20;;;18.48;;
23370;SDS011;11858;51.056;3.712;2023-10-08T13:31:09;16.98;;;15.88;;
23370;SDS011;11858;51.056;3.712;2023-10-08T13:33:39;18.40;;;17.10;;
23370;SDS011;11858;51.056;3.712;2023-10-08T13:36:06;18.73;;;17.52;;
23370;SDS011;11858;51.056;3.712;2023-10-08T13:38:37;18.58;;;17.10;;
23370;SDS011;11858;51.056;3.712;2023-10-08T13:41:03;17.20;;;16.10;;
23370;SDS011;11858;51.056;3.712;2023-10-08T13:43:40;16.20;;;15.20;;
23370;SDS011;11858;51.056;3.712;2023-10-08T13:46:10;21.85;;;20.02;;
23370;SDS011;11858;51.056;3.712;2023-10-08T13:48:42;17.55;;;16.38;;
23370;SDS011;11858;51.056;3.712;2023-10-08T13:51:13;17.48;;;16.38;;
23370;SDS011;11858;51.056;3.712;2023-10-08T13:53:47;18.30;;;17.02;;
23370;SDS011;11858;51.056;3.712;2023-10-08T13:56:17;18.58;;;17.38;;
23370;SDS011;11858;51.056;3.712;2023-10-08T13:58:50;18.75;;;17.30;;
23370;SDS011;11858;51.056;3.712;2023-10-08T14:01:16;19.83;;;18.00;;
23370;SDS011;11858;51.056;3.712;2023-10-08T14:03:49;23.40;;;21.60;;
23370;SDS011;11858;51.056;3.712;2023-10-08T14:06:18;18.77;;;17.27;;
23370;SDS011;11858;51.056;3.712;2023-10-08T14:08:45;18.77;;;17.58;;
23370;SDS011;11858;51.056;3.712;2023-10-08T14:11:19;19.85;;;18.45;;
23370;SDS011;11858;51.056;3.712;2023-10-08T14:13:49;17.83;;;16.73;;
23370;SDS011;11858;51.056;3.712;2023-10-08T14:16:16;18.80;;;17.60;;
23370;SDS011;11858;51.056;3.712;2023-10-08T14:18:43;19.17;;;17.98;;
23370;SDS011;11858;51.056;3.712;2023-10-08T14:21:15;19.90;;;18.52;;
23370;SDS011;11858;51.056;3.712;2023-10-08T14:23:43;22.48;;;20.38;;
23370;SDS011;11858;51.056;3.712;2023-10-08T14:26:09;18.25;;;17.15;;
23370;SDS011;11858;51.056;3.712;2023-10-08T14:28:36;17.95;;;16.70;;
23370;SDS011;11858;51.056;3.712;2023-10-08T14:31:08;20.02;;;18.70;;
23370;SDS011;11858;51.056;3.712;2023-10-08T14:33:40;18.48;;;17.38;;
23370;SDS011;11858;51.056;3.712;2023-10-08T14:36:20;18.20;;;17.00;;
23370;SDS011;11858;51.056;3.712;2023-10-08T14:39:08;17.27;;;16.17;;
23370;SDS011;11858;51.056;3.712;2023-10-08T14:41:53;18.75;;;17.45;;
23370;SDS011;11858;51.056;3.712;2023-10-08T14:44:37;18.20;;;17.00;;
23370;SDS011;11858;51.056;3.712;2023-10-08T14:47:03;17.88;;;16.58;;
23370;SDS011;11858;51.056;3.712;2023-10-08T14:49:29;17.92;;;16.83;;
23370;SDS011;11858;51.056;3.712;2023-10-08T14:51:55;17.88;;;16.77;;
23370;SDS011;11858;51.056;3.712;2023-10-08T14:54:21;17.75;;;16.65;;
23370;SDS011;11858;51.056;3.712;2023-10-08T14:56:47;19.65;;;18.08;;
23370;SDS011;11858;51.056;3.712;2023-10-08T14:59:12;18.52;;;17.38;;
23370;SDS011;11858;51.056;3.712;2023-10-08T15:01:40;17.90;;;16.70;;
23370;SDS011;11858;51.056;3.712;2023-10-08T15:04:06;18.00;;;16.90;;
23370;SDS011;11858;51.056;3.712;2023-10-08T15:06:36;18.13;;;16.95;;
23370;SDS011;11858;51.056;3.712;2023-10-08T15:09:03;18.33;;;17.17;;